sensor_id;sensor_type;location;lat;lon;timestamp;P1;durP1;ratioP1;P2;durP2;ratioP2
68386;SDS011;55338;43.062;25.624;2022-09-11T00:01:05;33.37;;;8.77;;
68386;SDS011;55338;43.062;25.624;2022-09-11T00:03:31;22.20;;;8.20;;
68386;SDS011;55338;43.062;25.624;2022-09-11T00:06:05;29.75;;;7.97;;
68386;SDS011;55338;43.062;25.624;2022-09-11T00:08:32;55.97;;;8.77;;
68386;SDS011;55338;43.062;25.624;2022-09-11T00:11:03;38.42;;;7.95;;
68386;SDS011;55338;43.062;25.624;2022-09-11T00:13:38;36.72;;;8.30;;
68386;SDS011;55338;43.062;25.624;2022-09-11T00:16:15;35.07;;;8.53;;
68386;SDS011;55338;43.062;25.624;2022-09-11T00:18:48;36.42;;;9.35;;
68386;SDS011;55338;43.062;25.624;2022-09-11T00:21:14;83.47;;;10.60;;
68386;SDS011;55338;43.062;25.624;2022-09-11T00:23:42;24.85;;;9.05;;
68386;SDS011;55338;43.062;25.624;2022-09-11T00:26:08;34.42;;;8.18;;
68386;SDS011;55338;43.062;25.624;2022-09-11T00:28:34;43.97;;;8.80;;
68386;SDS011;55338;43.062;25.624;2022-09-11T00:31:10;84.40;;;10.57;;
68386;SDS011;55338;43.062;25.624;2022-09-11T00:33:39;129.60;;;10.88;;
68386;SDS011;55338;43.062;25.624;2022-09-11T00:36:07;63.15;;;9.52;;
68386;SDS011;55338;43.062;25.624;2022-09-11T00:38:36;158.60;;;13.30;;
68386;SDS011;55338;43.062;25.624;2022-09-11T00:41:03;98.20;;;8.90;;
68386;SDS011;55338;43.062;25.624;2022-09-11T00:43:54;155.88;;;10.75;;
68386;SDS011;55338;43.062;25.624;2022-09-11T00:46:25;54.90;;;8.65;;
68386;SDS011;55338;43.062;25.624;2022-09-11T00:49:48;88.65;;;10.80;;
68386;SDS011;55338;43.062;25.624;2022-09-11T00:52:13;215.77;;;15.17;;
68386;SDS011;55338;43.062;25.624;2022-09-11T00:57:34;61.20;;;9.93;;
68386;SDS011;55338;43.062;25.624;2022-09-11T01:00:05;58.78;;;9.48;;
68386;SDS011;55338;43.062;25.624;2022-09-11T01:02:33;42.03;;;8.65;;
68386;SDS011;55338;43.062;25.624;2022-09-11T01:05:00;37.90;;;8.73;;
68386;SDS011;55338;43.062;25.624;2022-09-11T01:07:27;44.78;;;9.80;;
68386;SDS011;55338;43.062;25.624;2022-09-11T01:09:54;24.52;;;8.57;;
68386;SDS011;55338;43.062;25.624;2022-09-11T01:12:27;28.90;;;8.40;;
68386;SDS011;55338;43.062;25.624;2022-09-11T01:15:37;61.08;;;9.27;;
68386;SDS011;55338;43.062;25.624;2022-09-11T01:18:29;55.00;;;9.67;;
68386;SDS011;55338;43.062;25.624;2022-09-11T01:24:09;15.27;;;7.93;;
68386;SDS011;55338;43.062;25.624;2022-09-11T01:29:42;21.85;;;7.85;;
68386;SDS011;55338;43.062;25.624;2022-09-11T01:35:06;29.60;;;8.75;;
68386;SDS011;55338;43.062;25.624;2022-09-11T01:40:20;49.83;;;9.90;;
68386;SDS011;55338;43.062;25.624;2022-09-11T01:42:48;15.27;;;9.20;;
68386;SDS011;55338;43.062;25.624;2022-09-11T01:45:17;27.73;;;8.70;;
68386;SDS011;55338;43.062;25.624;2022-09-11T01:47:44;99.63;;;10.90;;
68386;SDS011;55338;43.062;25.624;2022-09-11T01:50:13;21.52;;;8.98;;
68386;SDS011;55338;43.062;25.624;2022-09-11T01:52:46;47.30;;;9.13;;
68386;SDS011;55338;43.062;25.624;2022-09-11T01:55:20;127.82;;;11.13;;
68386;SDS011;55338;43.062;25.624;2022-09-11T01:58:01;45.63;;;9.13;;
68386;SDS011;55338;43.062;25.624;2022-09-11T02:00:51;51.10;;;8.30;;
68386;SDS011;55338;43.062;25.624;2022-09-11T02:03:24;84.65;;;10.45;;
68386;SDS011;55338;43.062;25.624;2022-09-11T02:06:22;68.60;;;9.25;;
68386;SDS011;55338;43.062;25.624;2022-09-11T02:08:58;64.55;;;10.20;;
68386;SDS011;55338;43.062;25.624;2022-09-11T02:11:28;100.37;;;10.27;;
68386;SDS011;55338;43.062;25.624;2022-09-11T02:13:59;55.13;;;9.73;;
68386;SDS011;55338;43.062;25.624;2022-09-11T02:19:28;41.60;;;8.25;;
68386;SDS011;55338;43.062;25.624;2022-09-11T02:21:55;32.42;;;8.68;;
68386;SDS011;55338;43.062;25.624;2022-09-11T02:24:22;22.80;;;8.37;;
68386;SDS011;55338;43.062;25.624;2022-09-11T02:26:50;66.30;;;9.57;;
68386;SDS011;55338;43.062;25.624;2022-09-11T02:29:19;79.25;;;10.73;;
68386;SDS011;55338;43.062;25.624;2022-09-11T02:31:45;56.10;;;10.73;;
68386;SDS011;55338;43.062;25.624;2022-09-11T02:34:12;83.90;;;11.07;;
68386;SDS011;55338;43.062;25.624;2022-09-11T02:57:30;88.50;;;10.23;;
68386;SDS011;55338;43.062;25.624;2022-09-11T03:00:11;20.38;;;8.65;;
68386;SDS011;55338;43.062;25.624;2022-09-11T03:02:38;23.87;;;9.13;;
68386;SDS011;55338;43.062;25.624;2022-09-11T03:05:06;59.13;;;10.45;;
68386;SDS011;55338;43.062;25.624;2022-09-11T03:07:32;24.90;;;8.38;;
68386;SDS011;55338;43.062;25.624;2022-09-11T03:09:58;20.80;;;8.90;;
68386;SDS011;55338;43.062;25.624;2022-09-11T03:12:24;15.83;;;7.67;;
68386;SDS011;55338;43.062;25.624;2022-09-11T03:14:51;18.88;;;8.63;;
68386;SDS011;55338;43.062;25.624;2022-09-11T03:17:17;19.02;;;8.10;;
68386;SDS011;55338;43.062;25.624;2022-09-11T03:19:44;17.50;;;8.73;;
68386;SDS011;55338;43.062;25.624;2022-09-11T03:22:10;15.93;;;8.75;;
68386;SDS011;55338;43.062;25.624;2022-09-11T03:24:36;15.27;;;8.20;;
68386;SDS011;55338;43.062;25.624;2022-09-11T03:27:03;11.18;;;7.95;;
68386;SDS011;55338;43.062;25.624;2022-09-11T03:29:29;17.00;;;9.40;;
68386;SDS011;55338;43.062;25.624;2022-09-11T03:31:56;13.27;;;7.65;;
68386;SDS011;55338;43.062;25.624;2022-09-11T03:34:23;15.13;;;8.43;;
68386;SDS011;55338;43.062;25.624;2022-09-11T03:36:49;12.30;;;8.13;;
68386;SDS011;55338;43.062;25.624;2022-09-11T03:39:15;17.42;;;9.05;;
68386;SDS011;55338;43.062;25.624;2022-09-11T03:41:42;17.38;;;8.65;;
68386;SDS011;55338;43.062;25.624;2022-09-11T03:44:08;15.23;;;8.07;;
68386;SDS011;55338;43.062;25.624;2022-09-11T03:46:34;15.17;;;8.20;;
68386;SDS011;55338;43.062;25.624;2022-09-11T03:49:00;19.00;;;8.40;;
68386;SDS011;55338;43.062;25.624;2022-09-11T03:51:26;24.45;;;8.20;;
68386;SDS011;55338;43.062;25.624;2022-09-11T03:53:52;21.13;;;8.80;;
68386;SDS011;55338;43.062;25.624;2022-09-11T03:56:18;16.13;;;8.00;;
68386;SDS011;55338;43.062;25.624;2022-09-11T03:58:45;14.80;;;7.55;;
68386;SDS011;55338;43.062;25.624;2022-09-11T04:01:11;15.77;;;8.33;;
68386;SDS011;55338;43.062;25.624;2022-09-11T04:03:39;19.05;;;8.55;;
68386;SDS011;55338;43.062;25.624;2022-09-11T04:06:06;15.13;;;7.85;;
68386;SDS011;55338;43.062;25.624;2022-09-11T04:08:32;20.20;;;8.23;;
68386;SDS011;55338;43.062;25.624;2022-09-11T04:10:59;19.17;;;7.63;;
68386;SDS011;55338;43.062;25.624;2022-09-11T04:13:27;14.67;;;7.83;;
68386;SDS011;55338;43.062;25.624;2022-09-11T04:16:01;13.15;;;7.95;;
68386;SDS011;55338;43.062;25.624;2022-09-11T04:18:29;16.75;;;7.88;;
68386;SDS011;55338;43.062;25.624;2022-09-11T04:21:02;20.67;;;8.00;;
68386;SDS011;55338;43.062;25.624;2022-09-11T04:23:38;22.77;;;8.48;;
68386;SDS011;55338;43.062;25.624;2022-09-11T04:26:12;22.20;;;8.23;;
68386;SDS011;55338;43.062;25.624;2022-09-11T04:28:42;71.32;;;11.25;;
68386;SDS011;55338;43.062;25.624;2022-09-11T04:31:09;46.47;;;8.95;;
68386;SDS011;55338;43.062;25.624;2022-09-11T04:33:35;116.85;;;12.30;;
68386;SDS011;55338;43.062;25.624;2022-09-11T04:36:05;80.47;;;10.52;;
68386;SDS011;55338;43.062;25.624;2022-09-11T04:38:32;145.77;;;11.67;;
68386;SDS011;55338;43.062;25.624;2022-09-11T04:41:02;99.70;;;11.75;;
68386;SDS011;55338;43.062;25.624;2022-09-11T04:43:35;82.50;;;12.50;;
68386;SDS011;55338;43.062;25.624;2022-09-11T04:46:03;100.10;;;11.52;;
68386;SDS011;55338;43.062;25.624;2022-09-11T04:48:31;61.85;;;11.48;;
68386;SDS011;55338;43.062;25.624;2022-09-11T04:51:00;127.57;;;11.13;;
68386;SDS011;55338;43.062;25.624;2022-09-11T04:53:28;100.68;;;10.50;;
68386;SDS011;55338;43.062;25.624;2022-09-11T04:56:03;71.13;;;10.73;;
68386;SDS011;55338;43.062;25.624;2022-09-11T04:58:30;52.95;;;9.63;;
68386;SDS011;55338;43.062;25.624;2022-09-11T05:00:56;77.05;;;10.70;;
68386;SDS011;55338;43.062;25.624;2022-09-11T05:03:22;129.93;;;10.47;;
68386;SDS011;55338;43.062;25.624;2022-09-11T05:05:48;104.13;;;10.80;;
68386;SDS011;55338;43.062;25.624;2022-09-11T05:08:14;17.23;;;7.93;;
68386;SDS011;55338;43.062;25.624;2022-09-11T05:10:43;32.07;;;9.27;;
68386;SDS011;55338;43.062;25.624;2022-09-11T05:13:09;24.85;;;9.05;;
68386;SDS011;55338;43.062;25.624;2022-09-11T05:15:36;32.05;;;8.05;;
68386;SDS011;55338;43.062;25.624;2022-09-11T05:18:01;34.73;;;8.70;;
68386;SDS011;55338;43.062;25.624;2022-09-11T05:20:28;32.40;;;9.10;;
68386;SDS011;55338;43.062;25.624;2022-09-11T05:22:55;18.33;;;8.30;;
68386;SDS011;55338;43.062;25.624;2022-09-11T05:25:22;15.00;;;8.50;;
68386;SDS011;55338;43.062;25.624;2022-09-11T05:27:49;14.93;;;8.38;;
68386;SDS011;55338;43.062;25.624;2022-09-11T05:30:15;20.58;;;8.57;;
68386;SDS011;55338;43.062;25.624;2022-09-11T05:32:41;26.60;;;9.17;;
68386;SDS011;55338;43.062;25.624;2022-09-11T05:35:07;14.45;;;8.23;;
68386;SDS011;55338;43.062;25.624;2022-09-11T05:37:33;11.93;;;8.25;;
68386;SDS011;55338;43.062;25.624;2022-09-11T05:39:59;11.30;;;7.80;;
68386;SDS011;55338;43.062;25.624;2022-09-11T05:42:25;13.60;;;7.88;;
68386;SDS011;55338;43.062;25.624;2022-09-11T05:44:52;13.93;;;8.20;;
68386;SDS011;55338;43.062;25.624;2022-09-11T05:47:19;11.88;;;8.05;;
68386;SDS011;55338;43.062;25.624;2022-09-11T05:49:44;16.17;;;8.57;;
68386;SDS011;55338;43.062;25.624;2022-09-11T05:52:10;12.63;;;8.40;;
68386;SDS011;55338;43.062;25.624;2022-09-11T05:54:36;10.43;;;8.03;;
68386;SDS011;55338;43.062;25.624;2022-09-11T05:57:01;13.90;;;8.45;;
68386;SDS011;55338;43.062;25.624;2022-09-11T05:59:27;13.50;;;8.43;;
68386;SDS011;55338;43.062;25.624;2022-09-11T06:01:53;13.10;;;8.68;;
68386;SDS011;55338;43.062;25.624;2022-09-11T06:04:19;9.83;;;7.90;;
68386;SDS011;55338;43.062;25.624;2022-09-11T06:06:45;10.32;;;7.68;;
68386;SDS011;55338;43.062;25.624;2022-09-11T06:09:13;11.77;;;8.20;;
68386;SDS011;55338;43.062;25.624;2022-09-11T06:11:39;10.35;;;8.00;;
68386;SDS011;55338;43.062;25.624;2022-09-11T06:14:05;16.63;;;8.33;;
68386;SDS011;55338;43.062;25.624;2022-09-11T06:16:31;11.65;;;9.15;;
68386;SDS011;55338;43.062;25.624;2022-09-11T06:18:57;14.30;;;9.57;;
68386;SDS011;55338;43.062;25.624;2022-09-11T06:21:23;14.45;;;8.98;;
68386;SDS011;55338;43.062;25.624;2022-09-11T06:23:51;12.77;;;7.90;;
68386;SDS011;55338;43.062;25.624;2022-09-11T06:26:18;13.43;;;6.75;;
68386;SDS011;55338;43.062;25.624;2022-09-11T06:28:46;14.43;;;6.67;;
68386;SDS011;55338;43.062;25.624;2022-09-11T06:31:13;10.25;;;7.07;;
68386;SDS011;55338;43.062;25.624;2022-09-11T06:33:43;10.70;;;6.80;;
68386;SDS011;55338;43.062;25.624;2022-09-11T06:36:10;10.90;;;6.18;;
68386;SDS011;55338;43.062;25.624;2022-09-11T06:38:37;12.80;;;6.60;;
68386;SDS011;55338;43.062;25.624;2022-09-11T06:41:04;9.63;;;5.50;;
68386;SDS011;55338;43.062;25.624;2022-09-11T06:43:31;11.27;;;7.00;;
68386;SDS011;55338;43.062;25.624;2022-09-11T06:48:52;6.95;;;5.32;;
68386;SDS011;55338;43.062;25.624;2022-09-11T06:51:19;11.90;;;5.50;;
68386;SDS011;55338;43.062;25.624;2022-09-11T06:53:46;8.52;;;4.88;;
68386;SDS011;55338;43.062;25.624;2022-09-11T06:56:13;8.90;;;5.50;;
68386;SDS011;55338;43.062;25.624;2022-09-11T06:58:41;12.98;;;4.95;;
68386;SDS011;55338;43.062;25.624;2022-09-11T07:01:14;7.90;;;4.22;;
68386;SDS011;55338;43.062;25.624;2022-09-11T07:03:42;7.37;;;3.53;;
68386;SDS011;55338;43.062;25.624;2022-09-11T07:06:09;7.60;;;3.97;;
68386;SDS011;55338;43.062;25.624;2022-09-11T07:08:36;6.35;;;3.85;;
68386;SDS011;55338;43.062;25.624;2022-09-11T07:11:03;5.80;;;2.92;;
68386;SDS011;55338;43.062;25.624;2022-09-11T07:13:29;6.22;;;3.00;;
68386;SDS011;55338;43.062;25.624;2022-09-11T07:16:02;6.20;;;3.30;;
68386;SDS011;55338;43.062;25.624;2022-09-11T07:18:34;4.60;;;3.30;;
68386;SDS011;55338;43.062;25.624;2022-09-11T07:21:03;5.28;;;3.40;;
68386;SDS011;55338;43.062;25.624;2022-09-11T07:23:45;9.52;;;2.80;;
68386;SDS011;55338;43.062;25.624;2022-09-11T07:26:12;6.15;;;3.30;;
68386;SDS011;55338;43.062;25.624;2022-09-11T07:28:38;4.90;;;2.53;;
68386;SDS011;55338;43.062;25.624;2022-09-11T07:31:14;6.88;;;3.00;;
68386;SDS011;55338;43.062;25.624;2022-09-11T07:33:43;4.35;;;2.55;;
68386;SDS011;55338;43.062;25.624;2022-09-11T07:36:12;6.95;;;2.60;;
68386;SDS011;55338;43.062;25.624;2022-09-11T07:38:43;6.15;;;3.10;;
68386;SDS011;55338;43.062;25.624;2022-09-11T07:41:11;6.53;;;2.70;;
68386;SDS011;55338;43.062;25.624;2022-09-11T07:43:38;7.45;;;2.35;;
68386;SDS011;55338;43.062;25.624;2022-09-11T07:46:11;3.88;;;2.92;;
68386;SDS011;55338;43.062;25.624;2022-09-11T07:48:37;4.22;;;2.80;;
68386;SDS011;55338;43.062;25.624;2022-09-11T07:51:04;6.57;;;2.90;;
68386;SDS011;55338;43.062;25.624;2022-09-11T07:53:42;4.97;;;2.50;;
68386;SDS011;55338;43.062;25.624;2022-09-11T07:56:11;6.22;;;2.42;;
68386;SDS011;55338;43.062;25.624;2022-09-11T07:58:42;6.50;;;2.30;;
68386;SDS011;55338;43.062;25.624;2022-09-11T08:01:12;3.67;;;2.50;;
68386;SDS011;55338;43.062;25.624;2022-09-11T08:03:40;4.70;;;2.17;;
68386;SDS011;55338;43.062;25.624;2022-09-11T08:06:13;6.07;;;2.60;;
68386;SDS011;55338;43.062;25.624;2022-09-11T08:08:41;7.45;;;2.00;;
68386;SDS011;55338;43.062;25.624;2022-09-11T08:11:08;4.63;;;2.40;;
68386;SDS011;55338;43.062;25.624;2022-09-11T08:13:36;4.32;;;2.22;;
68386;SDS011;55338;43.062;25.624;2022-09-11T08:16:03;5.07;;;2.10;;
68386;SDS011;55338;43.062;25.624;2022-09-11T08:18:29;5.83;;;2.30;;
68386;SDS011;55338;43.062;25.624;2022-09-11T08:21:02;9.63;;;2.30;;
68386;SDS011;55338;43.062;25.624;2022-09-11T08:23:31;6.82;;;2.30;;
68386;SDS011;55338;43.062;25.624;2022-09-11T08:26:07;4.68;;;2.30;;
68386;SDS011;55338;43.062;25.624;2022-09-11T08:28:34;3.75;;;2.20;;
68386;SDS011;55338;43.062;25.624;2022-09-11T08:31:01;5.27;;;1.73;;
68386;SDS011;55338;43.062;25.624;2022-09-11T08:33:28;2.75;;;1.60;;
68386;SDS011;55338;43.062;25.624;2022-09-11T08:35:56;3.80;;;1.95;;
68386;SDS011;55338;43.062;25.624;2022-09-11T08:38:22;4.65;;;1.83;;
68386;SDS011;55338;43.062;25.624;2022-09-11T08:40:49;3.08;;;1.77;;
68386;SDS011;55338;43.062;25.624;2022-09-11T08:45:50;4.35;;;1.75;;
68386;SDS011;55338;43.062;25.624;2022-09-11T08:48:21;5.40;;;1.80;;
68386;SDS011;55338;43.062;25.624;2022-09-11T08:50:53;4.03;;;2.33;;
68386;SDS011;55338;43.062;25.624;2022-09-11T08:53:19;3.27;;;1.87;;
68386;SDS011;55338;43.062;25.624;2022-09-11T09:03:51;3.13;;;1.80;;
68386;SDS011;55338;43.062;25.624;2022-09-11T09:12:04;3.42;;;1.60;;
68386;SDS011;55338;43.062;25.624;2022-09-11T09:17:53;13.30;;;2.67;;
68386;SDS011;55338;43.062;25.624;2022-09-11T09:20:42;5.82;;;1.90;;
68386;SDS011;55338;43.062;25.624;2022-09-11T09:23:21;3.00;;;1.98;;
68386;SDS011;55338;43.062;25.624;2022-09-11T09:25:50;4.65;;;2.05;;
68386;SDS011;55338;43.062;25.624;2022-09-11T09:28:21;4.18;;;2.03;;
68386;SDS011;55338;43.062;25.624;2022-09-11T09:30:50;3.40;;;2.00;;
68386;SDS011;55338;43.062;25.624;2022-09-11T09:36:11;4.35;;;1.90;;
68386;SDS011;55338;43.062;25.624;2022-09-11T09:38:46;3.05;;;1.85;;
68386;SDS011;55338;43.062;25.624;2022-09-11T09:44:02;2.77;;;2.07;;
68386;SDS011;55338;43.062;25.624;2022-09-11T09:49:18;3.22;;;1.55;;
68386;SDS011;55338;43.062;25.624;2022-09-11T09:51:48;3.67;;;1.80;;
68386;SDS011;55338;43.062;25.624;2022-09-11T09:54:15;3.70;;;1.95;;
68386;SDS011;55338;43.062;25.624;2022-09-11T09:56:46;3.47;;;1.83;;
68386;SDS011;55338;43.062;25.624;2022-09-11T09:59:21;4.70;;;1.75;;
68386;SDS011;55338;43.062;25.624;2022-09-11T10:01:56;2.78;;;1.60;;
68386;SDS011;55338;43.062;25.624;2022-09-11T10:04:23;4.32;;;2.08;;
68386;SDS011;55338;43.062;25.624;2022-09-11T10:07:04;3.83;;;2.00;;
68386;SDS011;55338;43.062;25.624;2022-09-11T10:09:35;4.67;;;1.70;;
68386;SDS011;55338;43.062;25.624;2022-09-11T10:12:15;2.40;;;1.60;;
68386;SDS011;55338;43.062;25.624;2022-09-11T10:17:22;3.95;;;2.63;;
68386;SDS011;55338;43.062;25.624;2022-09-11T10:22:43;6.30;;;1.60;;
68386;SDS011;55338;43.062;25.624;2022-09-11T10:27:38;4.72;;;2.10;;
68386;SDS011;55338;43.062;25.624;2022-09-11T10:30:24;3.78;;;2.03;;
68386;SDS011;55338;43.062;25.624;2022-09-11T10:32:52;3.45;;;1.70;;
68386;SDS011;55338;43.062;25.624;2022-09-11T10:35:19;6.40;;;1.97;;
68386;SDS011;55338;43.062;25.624;2022-09-11T10:38:13;4.65;;;1.70;;
68386;SDS011;55338;43.062;25.624;2022-09-11T10:40:51;3.08;;;1.55;;
68386;SDS011;55338;43.062;25.624;2022-09-11T10:44:15;3.67;;;1.70;;
68386;SDS011;55338;43.062;25.624;2022-09-11T10:48:57;4.53;;;1.90;;
68386;SDS011;55338;43.062;25.624;2022-09-11T10:51:40;3.25;;;1.98;;
68386;SDS011;55338;43.062;25.624;2022-09-11T10:59:43;4.10;;;2.22;;
68386;SDS011;55338;43.062;25.624;2022-09-11T11:02:20;3.17;;;2.30;;
68386;SDS011;55338;43.062;25.624;2022-09-11T11:04:56;2.85;;;1.77;;
68386;SDS011;55338;43.062;25.624;2022-09-11T11:10:23;2.80;;;1.90;;
68386;SDS011;55338;43.062;25.624;2022-09-11T11:32:39;5.65;;;2.60;;
68386;SDS011;55338;43.062;25.624;2022-09-11T11:38:15;3.78;;;2.53;;
68386;SDS011;55338;43.062;25.624;2022-09-11T11:40:50;5.13;;;2.25;;
68386;SDS011;55338;43.062;25.624;2022-09-11T11:43:20;3.50;;;2.27;;
68386;SDS011;55338;43.062;25.624;2022-09-11T11:46:34;3.60;;;2.50;;
68386;SDS011;55338;43.062;25.624;2022-09-11T11:49:00;4.63;;;2.60;;
68386;SDS011;55338;43.062;25.624;2022-09-11T11:51:40;3.17;;;2.40;;
68386;SDS011;55338;43.062;25.624;2022-09-11T11:54:20;5.47;;;2.28;;
68386;SDS011;55338;43.062;25.624;2022-09-11T11:56:50;3.07;;;1.93;;
68386;SDS011;55338;43.062;25.624;2022-09-11T11:59:21;4.05;;;2.40;;
68386;SDS011;55338;43.062;25.624;2022-09-11T12:02:33;2.88;;;1.92;;
68386;SDS011;55338;43.062;25.624;2022-09-11T12:05:22;3.28;;;1.77;;
68386;SDS011;55338;43.062;25.624;2022-09-11T12:07:50;3.10;;;2.17;;
68386;SDS011;55338;43.062;25.624;2022-09-11T12:13:01;4.10;;;2.10;;
68386;SDS011;55338;43.062;25.624;2022-09-11T12:15:30;3.85;;;1.75;;
68386;SDS011;55338;43.062;25.624;2022-09-11T12:18:03;3.72;;;2.08;;
68386;SDS011;55338;43.062;25.624;2022-09-11T12:20:41;3.13;;;2.10;;
68386;SDS011;55338;43.062;25.624;2022-09-11T12:26:23;4.25;;;2.10;;
68386;SDS011;55338;43.062;25.624;2022-09-11T12:37:43;3.20;;;1.73;;
68386;SDS011;55338;43.062;25.624;2022-09-11T12:40:36;2.80;;;1.70;;
68386;SDS011;55338;43.062;25.624;2022-09-11T12:45:53;3.05;;;2.20;;
68386;SDS011;55338;43.062;25.624;2022-09-11T12:48:31;4.65;;;2.22;;
68386;SDS011;55338;43.062;25.624;2022-09-11T12:51:03;4.03;;;1.83;;
68386;SDS011;55338;43.062;25.624;2022-09-11T12:53:30;3.03;;;1.70;;
68386;SDS011;55338;43.062;25.624;2022-09-11T12:56:05;2.88;;;1.88;;
68386;SDS011;55338;43.062;25.624;2022-09-11T13:01:15;4.15;;;2.13;;
68386;SDS011;55338;43.062;25.624;2022-09-11T13:03:54;3.03;;;1.70;;
68386;SDS011;55338;43.062;25.624;2022-09-11T13:06:49;2.60;;;1.50;;
68386;SDS011;55338;43.062;25.624;2022-09-11T13:09:34;3.83;;;1.85;;
68386;SDS011;55338;43.062;25.624;2022-09-11T13:12:37;2.80;;;1.60;;
68386;SDS011;55338;43.062;25.624;2022-09-11T13:15:29;2.55;;;1.95;;
68386;SDS011;55338;43.062;25.624;2022-09-11T13:21:11;3.75;;;1.88;;
68386;SDS011;55338;43.062;25.624;2022-09-11T13:23:39;2.97;;;1.50;;
68386;SDS011;55338;43.062;25.624;2022-09-11T13:26:07;3.08;;;2.08;;
68386;SDS011;55338;43.062;25.624;2022-09-11T13:28:46;2.70;;;1.77;;
68386;SDS011;55338;43.062;25.624;2022-09-11T13:31:33;2.60;;;1.70;;
68386;SDS011;55338;43.062;25.624;2022-09-11T13:34:02;3.20;;;1.95;;
68386;SDS011;55338;43.062;25.624;2022-09-11T13:36:37;2.92;;;1.48;;
68386;SDS011;55338;43.062;25.624;2022-09-11T13:39:03;4.20;;;1.73;;
68386;SDS011;55338;43.062;25.624;2022-09-11T13:41:39;4.13;;;2.08;;
68386;SDS011;55338;43.062;25.624;2022-09-11T13:44:12;2.93;;;1.60;;
68386;SDS011;55338;43.062;25.624;2022-09-11T13:47:15;4.70;;;1.52;;
68386;SDS011;55338;43.062;25.624;2022-09-11T13:49:44;5.05;;;2.03;;
68386;SDS011;55338;43.062;25.624;2022-09-11T13:52:12;2.88;;;1.50;;
68386;SDS011;55338;43.062;25.624;2022-09-11T13:54:40;3.50;;;1.92;;
68386;SDS011;55338;43.062;25.624;2022-09-11T13:57:11;2.80;;;1.73;;
68386;SDS011;55338;43.062;25.624;2022-09-11T14:07:56;3.65;;;1.50;;
68386;SDS011;55338;43.062;25.624;2022-09-11T14:10:27;4.07;;;1.97;;
68386;SDS011;55338;43.062;25.624;2022-09-11T14:13:21;2.70;;;1.30;;
68386;SDS011;55338;43.062;25.624;2022-09-11T14:21:17;3.47;;;1.40;;
68386;SDS011;55338;43.062;25.624;2022-09-11T14:23:50;3.13;;;1.30;;
68386;SDS011;55338;43.062;25.624;2022-09-11T14:26:22;3.78;;;1.40;;
68386;SDS011;55338;43.062;25.624;2022-09-11T14:34:19;2.80;;;1.33;;
68386;SDS011;55338;43.062;25.624;2022-09-11T14:36:56;2.80;;;1.37;;
68386;SDS011;55338;43.062;25.624;2022-09-11T14:39:39;2.67;;;1.20;;
68386;SDS011;55338;43.062;25.624;2022-09-11T14:42:14;3.67;;;1.40;;
68386;SDS011;55338;43.062;25.624;2022-09-11T14:44:42;3.55;;;1.40;;
68386;SDS011;55338;43.062;25.624;2022-09-11T14:47:11;5.25;;;1.90;;
68386;SDS011;55338;43.062;25.624;2022-09-11T14:49:41;3.03;;;1.50;;
68386;SDS011;55338;43.062;25.624;2022-09-11T14:52:08;4.72;;;1.42;;
68386;SDS011;55338;43.062;25.624;2022-09-11T14:54:37;5.22;;;1.42;;
68386;SDS011;55338;43.062;25.624;2022-09-11T14:57:10;3.42;;;1.65;;
68386;SDS011;55338;43.062;25.624;2022-09-11T14:59:38;4.85;;;1.50;;
68386;SDS011;55338;43.062;25.624;2022-09-11T15:02:09;5.33;;;1.40;;
68386;SDS011;55338;43.062;25.624;2022-09-11T15:04:39;4.18;;;1.45;;
68386;SDS011;55338;43.062;25.624;2022-09-11T15:07:07;3.85;;;1.70;;
68386;SDS011;55338;43.062;25.624;2022-09-11T15:09:35;4.07;;;1.52;;
68386;SDS011;55338;43.062;25.624;2022-09-11T15:12:02;6.17;;;1.87;;
68386;SDS011;55338;43.062;25.624;2022-09-11T15:14:29;2.40;;;1.35;;
68386;SDS011;55338;43.062;25.624;2022-09-11T15:16:56;5.60;;;2.03;;
68386;SDS011;55338;43.062;25.624;2022-09-11T15:19:24;5.65;;;1.63;;
68386;SDS011;55338;43.062;25.624;2022-09-11T15:21:49;4.25;;;1.65;;
68386;SDS011;55338;43.062;25.624;2022-09-11T15:24:15;3.13;;;1.53;;
68386;SDS011;55338;43.062;25.624;2022-09-11T15:26:41;4.55;;;1.30;;
68386;SDS011;55338;43.062;25.624;2022-09-11T15:29:07;9.27;;;1.97;;
68386;SDS011;55338;43.062;25.624;2022-09-11T15:31:37;7.97;;;2.20;;
68386;SDS011;55338;43.062;25.624;2022-09-11T15:34:04;5.07;;;1.83;;
68386;SDS011;55338;43.062;25.624;2022-09-11T15:36:31;2.85;;;1.25;;
68386;SDS011;55338;43.062;25.624;2022-09-11T15:38:57;3.63;;;1.40;;
68386;SDS011;55338;43.062;25.624;2022-09-11T15:41:23;7.10;;;1.80;;
68386;SDS011;55338;43.062;25.624;2022-09-11T15:43:52;3.50;;;1.20;;
68386;SDS011;55338;43.062;25.624;2022-09-11T15:46:18;5.80;;;1.63;;
68386;SDS011;55338;43.062;25.624;2022-09-11T15:48:45;5.13;;;1.20;;
68386;SDS011;55338;43.062;25.624;2022-09-11T15:51:13;2.75;;;1.00;;
68386;SDS011;55338;43.062;25.624;2022-09-11T15:53:43;5.18;;;1.48;;
68386;SDS011;55338;43.062;25.624;2022-09-11T15:56:10;4.00;;;1.63;;
68386;SDS011;55338;43.062;25.624;2022-09-11T15:58:37;2.40;;;1.30;;
68386;SDS011;55338;43.062;25.624;2022-09-11T16:01:14;8.07;;;1.50;;
68386;SDS011;55338;43.062;25.624;2022-09-11T16:03:51;3.47;;;1.40;;
68386;SDS011;55338;43.062;25.624;2022-09-11T16:06:17;3.40;;;1.38;;
68386;SDS011;55338;43.062;25.624;2022-09-11T16:08:44;4.03;;;1.27;;
68386;SDS011;55338;43.062;25.624;2022-09-11T16:11:11;5.75;;;1.77;;
68386;SDS011;55338;43.062;25.624;2022-09-11T16:13:38;6.97;;;1.50;;
68386;SDS011;55338;43.062;25.624;2022-09-11T16:16:04;5.13;;;1.40;;
68386;SDS011;55338;43.062;25.624;2022-09-11T16:18:35;10.48;;;1.70;;
68386;SDS011;55338;43.062;25.624;2022-09-11T16:21:03;4.40;;;1.63;;
68386;SDS011;55338;43.062;25.624;2022-09-11T16:23:29;5.40;;;1.20;;
68386;SDS011;55338;43.062;25.624;2022-09-11T16:25:55;5.57;;;1.60;;
68386;SDS011;55338;43.062;25.624;2022-09-11T16:28:25;6.97;;;1.35;;
68386;SDS011;55338;43.062;25.624;2022-09-11T16:30:51;9.55;;;1.50;;
68386;SDS011;55338;43.062;25.624;2022-09-11T16:33:17;10.65;;;1.58;;
68386;SDS011;55338;43.062;25.624;2022-09-11T16:35:44;4.03;;;1.50;;
68386;SDS011;55338;43.062;25.624;2022-09-11T16:38:31;7.78;;;1.70;;
68386;SDS011;55338;43.062;25.624;2022-09-11T16:41:05;16.35;;;2.78;;
68386;SDS011;55338;43.062;25.624;2022-09-11T16:43:39;12.35;;;1.73;;
68386;SDS011;55338;43.062;25.624;2022-09-11T16:46:07;4.32;;;1.40;;
68386;SDS011;55338;43.062;25.624;2022-09-11T16:48:34;5.50;;;1.37;;
68386;SDS011;55338;43.062;25.624;2022-09-11T16:51:03;5.10;;;2.03;;
68386;SDS011;55338;43.062;25.624;2022-09-11T16:53:30;13.57;;;1.40;;
68386;SDS011;55338;43.062;25.624;2022-09-11T16:55:57;7.93;;;2.08;;
68386;SDS011;55338;43.062;25.624;2022-09-11T16:58:25;6.07;;;1.50;;
68386;SDS011;55338;43.062;25.624;2022-09-11T17:00:52;5.50;;;1.67;;
68386;SDS011;55338;43.062;25.624;2022-09-11T17:03:18;6.72;;;1.77;;
68386;SDS011;55338;43.062;25.624;2022-09-11T17:05:47;10.60;;;1.80;;
68386;SDS011;55338;43.062;25.624;2022-09-11T17:08:15;7.18;;;2.03;;
68386;SDS011;55338;43.062;25.624;2022-09-11T17:10:42;11.27;;;2.20;;
68386;SDS011;55338;43.062;25.624;2022-09-11T17:13:09;4.07;;;1.73;;
68386;SDS011;55338;43.062;25.624;2022-09-11T17:15:35;10.38;;;1.77;;
68386;SDS011;55338;43.062;25.624;2022-09-11T17:18:01;6.25;;;2.05;;
68386;SDS011;55338;43.062;25.624;2022-09-11T17:20:27;8.37;;;1.57;;